Time;durP1;ratioP1;P1;durP2;ratioP2;P2;SDS_P1;SDS_P2;PMS_P1;PMS_P2;Temp;Humidity;BMP_temperature;BMP_pressure;BME280_temperature;BME280_humidity;BME280_pressure;Samples;Min_cycle;Max_cycle;Signal;HPM_P1;HPM_P2
2021/03/30 00:00:28;;;;;;;1.27;0.50;;;20.10;47.80;;;;;;7710703;23;20166;-64
2021/03/30 00:03:28;;;;;;;0.63;0.40;;;20.10;47.90;;;;;;7710758;23;20394;-64
2021/03/30 00:06:29;;;;;;;0.65;0.57;;;20.10;47.90;;;;;;7710919;23;20056;-64
2021/03/30 00:09:29;;;;;;;0.50;0.30;;;20.10;47.80;;;;;;7710438;23;20004;-64
2021/03/30 00:12:30;;;;;;;0.90;0.50;;;20.10;47.80;;;;;;7710371;23;20005;-64
2021/03/30 00:15:31;;;;;;;0.47;0.40;;;20.10;47.90;;;;;;7710661;23;20005;-64
2021/03/30 00:18:31;;;;;;;0.65;0.40;;;20.10;47.90;;;;;;7710565;23;20001;-64
2021/03/30 00:21:32;;;;;;;0.90;0.47;;;20.10;47.80;;;;;;7710026;23;20368;-64
2021/03/30 00:24:32;;;;;;;0.75;0.50;;;20.10;47.80;;;;;;7710385;23;20021;-64
2021/03/30 00:27:33;;;;;;;0.30;0.30;;;20.10;47.90;;;;;;7710293;23;20032;-64
2021/03/30 00:30:34;;;;;;;0.70;0.30;;;20.10;47.80;;;;;;7710624;23;20090;-64
2021/03/30 00:33:34;;;;;;;0.50;0.40;;;20.10;47.90;;;;;;7710557;23;20012;-64
2021/03/30 00:36:35;;;;;;;0.60;0.50;;;20.10;47.90;;;;;;7710150;23;20543;-64
2021/03/30 00:39:35;;;;;;;1.25;0.43;;;20.10;47.90;;;;;;7710574;23;20025;-64
2021/03/30 00:42:37;;;;;;;0.95;0.30;;;20.10;47.90;;;;;;7710000;23;20012;-64
2021/03/30 00:45:37;;;;;;;0.98;0.50;;;20.10;47.90;;;;;;7710472;23;20016;-64
2021/03/30 00:48:38;;;;;;;0.50;0.40;;;20.10;47.90;;;;;;7709536;23;20348;-64
2021/03/30 00:51:39;;;;;;;0.32;0.32;;;20.10;47.90;;;;;;7710574;23;20444;-64
2021/03/30 00:54:39;;;;;;;0.57;0.40;;;20.10;47.90;;;;;;7709604;23;20005;-64
2021/03/30 00:57:40;;;;;;;0.73;0.40;;;20.10;47.90;;;;;;7710016;23;20035;-64
2021/03/30 01:00:41;;;;;;;0.40;0.30;;;20.10;47.90;;;;;;7710139;23;20035;-64
2021/03/30 01:03:41;;;;;;;0.50;0.38;;;20.10;48.60;;;;;;7708284;23;20004;-64
2021/03/30 01:06:43;;;;;;;1.15;0.60;;;20.10;47.90;;;;;;7710288;23;20350;-64
2021/03/30 01:09:57;;;;;;;0.57;0.40;;;20.10;47.90;;;;;;7710021;23;20005;-64
2021/03/30 01:13:48;;;;;;;0.32;0.32;;;20.10;47.90;;;;;;7709965;23;20004;-64
2021/03/30 01:16:57;;;;;;;0.40;0.40;;;20.10;48.00;;;;;;7670490;23;20009;-64
2021/03/30 01:20:35;;;;;;;0.63;0.45;;;20.10;47.90;;;;;;7709536;23;20490;-64
2021/03/30 01:23:59;;;;;;;0.60;0.40;;;20.10;47.90;;;;;;7709536;23;20391;-64
2021/03/30 01:27:23;;;;;;;0.30;0.30;;;20.10;47.90;;;;;;7709159;23;20004;-63
2021/03/30 01:30:26;;;;;;;0.60;0.40;;;20.10;47.90;;;;;;7709439;23;20074;-64
2021/03/30 01:33:33;;;;;;;0.45;0.40;;;20.10;47.90;;;;;;7709985;23;20009;-64
2021/03/30 01:36:37;;;;;;;0.95;0.68;;;20.10;47.90;;;;;;7709879;23;20015;-64
2021/03/30 01:39:39;;;;;;;0.97;0.53;;;20.10;47.90;;;;;;7709627;23;20013;-64
2021/03/30 01:42:41;;;;;;;0.47;0.40;;;20.10;47.90;;;;;;7709440;23;20008;-64
2021/03/30 01:45:42;;;;;;;0.63;0.43;;;20.10;47.90;;;;;;7706693;23;20020;-64
2021/03/30 01:48:45;;;;;;;0.55;0.30;;;20.10;47.90;;;;;;7708755;23;20314;-64
2021/03/30 01:51:46;;;;;;;0.55;0.40;;;20.10;47.90;;;;;;7709845;23;20232;-64
2021/03/30 01:54:48;;;;;;;0.43;0.38;;;20.10;47.90;;;;;;7709482;23;20451;-64
2021/03/30 01:57:55;;;;;;;0.45;0.40;;;20.10;48.00;;;;;;7709676;23;20012;-63
2021/03/30 02:00:55;;;;;;;0.50;0.40;;;20.10;47.90;;;;;;7709562;23;20443;-64
2021/03/30 02:03:59;;;;;;;0.30;0.30;;;20.10;48.00;;;;;;7709259;23;20013;-64
2021/03/30 02:07:00;;;;;;;0.85;0.50;;;20.10;47.90;;;;;;7710164;23;20015;-63
2021/03/30 02:10:06;;;;;;;0.45;0.43;;;20.10;48.00;;;;;;7708936;23;20015;-64
2021/03/30 02:13:09;;;;;;;0.50;0.40;;;20.10;47.90;;;;;;7709999;23;20438;-64
2021/03/30 02:16:21;;;;;;;0.65;0.45;;;20.10;48.00;;;;;;7709238;23;20012;-64
2021/03/30 02:19:44;;;;;;;0.75;0.32;;;20.10;47.90;;;;;;7709097;23;20012;-64
2021/03/30 02:23:01;;;;;;;0.40;0.38;;;20.10;48.00;;;;;;7708990;23;20395;-64
2021/03/30 02:26:04;;;;;;;0.57;0.47;;;20.10;47.90;;;;;;7709107;23;20009;-64
2021/03/30 02:29:09;;;;;;;0.35;0.30;;;20.10;48.00;;;;;;7708861;23;20011;-64
2021/03/30 02:32:13;;;;;;;0.40;0.38;;;20.10;48.00;;;;;;7709187;23;20000;-63
2021/03/30 02:35:16;;;;;;;0.30;0.30;;;20.10;47.90;;;;;;7708672;23;20009;-64
2021/03/30 02:38:18;;;;;;;1.58;0.40;;;20.10;48.00;;;;;;7709660;23;20039;-64
2021/03/30 02:41:19;;;;;;;0.63;0.45;;;20.10;48.00;;;;;;7709012;23;20008;-64
2021/03/30 02:44:21;;;;;;;0.40;0.40;;;20.10;48.00;;;;;;7708901;23;20412;-64
2021/03/30 02:47:23;;;;;;;0.50;0.40;;;20.10;48.00;;;;;;7708575;23;20013;-64
2021/03/30 02:50:24;;;;;;;0.88;0.50;;;20.10;47.90;;;;;;7709239;23;20016;-64
2021/03/30 02:53:25;;;;;;;0.28;0.28;;;20.10;48.00;;;;;;7708825;23;20011;-64
2021/03/30 02:56:26;;;;;;;0.40;0.40;;;20.10;48.00;;;;;;7709151;23;20035;-64
2021/03/30 02:59:30;;;;;;;1.42;0.60;;;20.10;48.00;;;;;;7709908;23;20004;-64
2021/03/30 03:02:32;;;;;;;0.30;0.30;;;20.10;48.00;;;;;;7712193;23;20007;-61
2021/03/30 03:05:33;;;;;;;0.43;0.38;;;20.10;48.00;;;;;;7711209;23;20340;-64
2021/03/30 03:08:34;;;;;;;0.40;0.30;;;20.10;48.00;;;;;;7711280;23;20016;-64
2021/03/30 03:11:40;;;;;;;0.40;0.30;;;20.10;48.00;;;;;;7710940;23;20005;-64
2021/03/30 03:14:43;;;;;;;0.50;0.40;;;20.10;48.00;;;;;;7711122;23;20032;-64
2021/03/30 03:17:44;;;;;;;0.50;0.40;;;20.10;48.00;;;;;;7711420;23;20488;-64
2021/03/30 03:20:49;;;;;;;0.50;0.40;;;20.10;48.00;;;;;;7711372;23;20001;-63
2021/03/30 03:23:49;;;;;;;0.40;0.40;;;20.10;48.00;;;;;;7711273;23;20012;-64
2021/03/30 03:26:50;;;;;;;0.40;0.40;;;20.10;48.00;;;;;;7710905;23;20088;-64
2021/03/30 03:29:51;;;;;;;0.82;0.50;;;20.10;48.00;;;;;;7710772;23;20008;-64
2021/03/30 03:32:51;;;;;;;0.82;0.45;;;20.10;48.00;;;;;;7710763;23;20027;-64
2021/03/30 03:36:08;;;;;;;0.40;0.40;;;20.10;48.00;;;;;;7710781;23;20079;-64
2021/03/30 03:39:14;;;;;;;0.45;0.40;;;20.10;48.00;;;;;;7711019;23;20000;-64
2021/03/30 03:42:15;;;;;;;0.90;0.57;;;20.10;48.00;;;;;;7710803;23;20035;-64
2021/03/30 03:45:15;;;;;;;0.40;0.40;;;20.10;48.00;;;;;;7710781;23;20087;-64
2021/03/30 03:48:16;;;;;;;0.50;0.40;;;20.10;48.00;;;;;;7710615;23;20021;-64
2021/03/30 03:51:18;;;;;;;0.65;0.38;;;20.10;48.00;;;;;;7710466;23;20004;-64
2021/03/30 03:54:21;;;;;;;0.50;0.50;;;20.10;48.00;;;;;;7710505;23;20005;-64
2021/03/30 03:57:34;;;;;;;0.95;0.50;;;20.10;48.00;;;;;;7710976;23;20347;-64
2021/03/30 04:00:36;;;;;;;0.52;0.40;;;20.10;48.00;;;;;;7710813;23;20066;-64
2021/03/30 04:03:47;;;;;;;0.40;0.40;;;20.10;48.00;;;;;;7710711;23;20004;-63
2021/03/30 04:06:55;;;;;;;0.70;0.40;;;20.10;48.00;;;;;;7710752;23;20080;-64
2021/03/30 04:10:00;;;;;;;1.00;0.40;;;20.10;48.00;;;;;;7711202;23;20001;-63
2021/03/30 04:13:04;;;;;;;1.48;0.50;;;20.10;48.00;;;;;;7709601;23;20058;-64
2021/03/30 04:16:05;;;;;;;0.80;0.63;;;20.10;48.00;;;;;;7711364;23;20008;-64
2021/03/30 04:19:12;;;;;;;0.40;0.40;;;20.10;48.00;;;;;;7710147;23;20340;-64
2021/03/30 04:22:15;;;;;;;0.57;0.50;;;20.10;48.00;;;;;;7710567;23;20085;-64
2021/03/30 04:25:16;;;;;;;0.57;0.45;;;20.10;48.00;;;;;;7710374;23;20447;-63
2021/03/30 04:28:17;;;;;;;0.95;0.40;;;20.10;48.00;;;;;;7708876;23;20009;-64
2021/03/30 04:31:18;;;;;;;0.77;0.50;;;20.10;48.00;;;;;;7710209;23;20028;-63
2021/03/30 04:34:18;;;;;;;1.30;0.50;;;20.10;48.00;;;;;;7710593;23;20561;-64
2021/03/30 04:37:19;;;;;;;0.60;0.50;;;20.10;48.00;;;;;;7710747;23;20079;-64
2021/03/30 04:40:19;;;;;;;0.55;0.40;;;20.10;48.00;;;;;;7710481;23;20349;-64
2021/03/30 04:43:21;;;;;;;0.70;0.47;;;20.10;48.00;;;;;;7710136;23;20076;-64
2021/03/30 04:46:22;;;;;;;0.85;0.55;;;20.10;48.00;;;;;;7709894;23;20009;-64
2021/03/30 04:49:22;;;;;;;0.40;0.40;;;20.10;48.00;;;;;;7709761;23;20449;-64
2021/03/30 04:52:23;;;;;;;0.75;0.50;;;20.10;48.00;;;;;;7709902;23;20013;-63
2021/03/30 04:55:23;;;;;;;0.40;0.40;;;20.10;48.00;;;;;;7711068;23;20336;-64
2021/03/30 04:58:24;;;;;;;2.53;0.40;;;20.10;48.00;;;;;;7710305;23;20009;-63
2021/03/30 05:01:24;;;;;;;1.02;0.52;;;20.10;48.00;;;;;;7710129;23;20032;-64
2021/03/30 05:04:25;;;;;;;0.93;0.40;;;20.10;48.00;;;;;;7710086;23;20009;-63
2021/03/30 05:07:25;;;;;;;0.63;0.50;;;20.10;48.00;;;;;;7710029;23;20004;-63
2021/03/30 05:10:26;;;;;;;1.08;0.50;;;20.10;48.00;;;;;;7709919;23;20005;-64
2021/03/30 05:13:27;;;;;;;0.77;0.40;;;20.10;48.00;;;;;;7709383;23;20376;-64
2021/03/30 05:16:28;;;;;;;0.93;0.30;;;20.10;48.00;;;;;;7711091;23;20000;-64
2021/03/30 05:19:28;;;;;;;1.35;0.50;;;20.10;48.00;;;;;;7709573;23;20001;-64
2021/03/30 05:22:29;;;;;;;3.22;0.93;;;20.10;48.00;;;;;;7708742;23;20018;-64
2021/03/30 05:25:29;;;;;;;2.78;1.10;;;20.00;47.70;;;;;;7709739;23;20302;-64
2021/03/30 05:28:30;;;;;;;8.13;2.85;;;20.00;47.30;;;;;;7709466;23;20084;-64
2021/03/30 05:31:31;;;;;;;13.65;2.70;;;20.00;46.30;;;;;;7709829;23;20005;-63
2021/03/30 05:34:31;;;;;;;12.43;3.20;;;19.90;45.90;;;;;;7710042;23;20004;-64
2021/03/30 05:37:32;;;;;;;20.88;4.07;;;19.90;45.50;;;;;;7696526;23;20068;-64
2021/03/30 05:40:32;;;;;;;25.75;4.35;;;19.90;44.90;;;;;;7704174;23;20075;-63
2021/03/30 05:43:35;;;;;;;15.20;4.78;;;19.90;45.10;;;;;;7707286;23;20490;-63
2021/03/30 05:46:38;;;;;;;12.93;4.45;;;19.90;44.70;;;;;;7706641;23;20008;-63
2021/03/30 05:49:40;;;;;;;13.57;4.50;;;19.90;44.90;;;;;;7707858;23;20024;-63
2021/03/30 05:52:45;;;;;;;17.05;4.10;;;19.90;43.40;;;;;;7708230;23;20028;-62
2021/03/30 05:55:50;;;;;;;13.45;4.10;;;19.90;43.60;;;;;;7708013;23;20079;-63
2021/03/30 05:58:52;;;;;;;;;;;19.90;44.00;;;;;;7708845;23;20024;-64
2021/03/30 06:01:53;;;;;;;10.82;3.95;;;20.00;44.40;;;;;;7707390;23;20338;-63
2021/03/30 06:04:56;;;;;;;14.52;3.60;;;20.00;44.60;;;;;;7707766;23;20035;-63
2021/03/30 06:07:59;;;;;;;11.15;3.05;;;20.00;45.00;;;;;;7709869;23;20008;-63
2021/03/30 06:11:07;;;;;;;6.47;3.40;;;20.00;45.20;;;;;;7709539;23;20005;-63
2021/03/30 06:14:07;;;;;;;8.48;3.45;;;20.00;45.20;;;;;;7709507;23;20035;-63
2021/03/30 06:17:10;;;;;;;7.43;3.30;;;20.00;45.40;;;;;;7709880;23;20080;-64
2021/03/30 06:20:13;;;;;;;10.10;3.50;;;20.00;45.60;;;;;;7709806;23;20119;-64
2021/03/30 06:23:26;;;;;;;7.28;3.15;;;20.00;45.70;;;;;;7710091;23;20080;-63
2021/03/30 06:26:27;;;;;;;7.07;2.80;;;20.00;45.80;;;;;;7709144;23;20004;-64
2021/03/30 06:29:36;;;;;;;7.85;3.05;;;20.00;46.10;;;;;;7709842;23;20005;-64
2021/03/30 06:32:37;;;;;;;8.10;2.63;;;20.00;46.30;;;;;;7709491;23;20001;-64
2021/03/30 06:35:38;;;;;;;6.97;2.88;;;20.00;46.30;;;;;;7710148;23;20455;-64
2021/03/30 06:39:03;;;;;;;4.78;2.45;;;20.00;46.40;;;;;;7711747;23;20008;-64
2021/03/30 06:42:20;;;;;;;7.00;2.97;;;20.00;46.40;;;;;;7712489;23;20000;-64
2021/03/30 06:45:26;;;;;;;9.30;3.03;;;20.00;46.50;;;;;;7711553;23;20012;-63
2021/03/30 06:48:27;;;;;;;5.93;2.90;;;20.00;46.50;;;;;;7711689;23;20020;-64
2021/03/30 06:51:39;;;;;;;4.72;2.15;;;20.00;46.50;;;;;;7711754;23;20070;-63
2021/03/30 06:54:57;;;;;;;5.45;2.70;;;20.00;46.50;;;;;;7711768;23;20379;-63
2021/03/30 06:58:03;;;;;;;5.28;2.63;;;20.00;46.50;;;;;;7711417;23;20429;-63
2021/03/30 07:01:03;;;;;;;5.28;2.55;;;20.10;46.90;;;;;;7711976;23;20015;-64
2021/03/30 07:04:05;;;;;;;12.93;2.92;;;20.20;46.60;;;;;;7709628;23;20491;-63
2021/03/30 07:07:06;;;;;;;12.32;2.40;;;20.20;46.80;;;;;;7711706;23;20043;-63
2021/03/30 07:10:07;;;;;;;4.70;2.35;;;20.30;46.60;;;;;;7712048;23;20020;-63
2021/03/30 07:13:09;;;;;;;7.63;2.17;;;20.30;46.60;;;;;;7714085;23;20031;-63
2021/03/30 07:16:21;;;;;;;4.45;2.40;;;20.20;46.30;;;;;;7712696;23;20004;-63
2021/03/30 07:19:24;;;;;;;4.78;2.58;;;20.30;46.00;;;;;;7713375;23;20431;-63
2021/03/30 07:22:27;;;;;;;4.25;2.15;;;20.20;45.90;;;;;;7712867;23;20320;-63
2021/03/30 07:25:28;;;;;;;5.22;2.70;;;20.30;46.00;;;;;;7711704;23;20099;-63
2021/03/30 07:28:34;;;;;;;3.58;2.15;;;20.30;46.00;;;;;;7711904;23;20375;-63
2021/03/30 07:32:07;;;;;;;3.92;2.10;;;20.30;46.60;;;;;;7713004;23;20404;-64
2021/03/30 07:35:19;;;;;;;5.00;1.88;;;20.30;46.30;;;;;;7711576;23;20028;-64
2021/03/30 07:38:21;;;;;;;4.40;2.30;;;20.30;46.40;;;;;;7712541;23;20026;-64
2021/03/30 07:41:22;;;;;;;6.00;2.40;;;20.30;46.50;;;;;;7713205;23;20512;-64
2021/03/30 07:44:24;;;;;;;6.35;2.35;;;20.20;46.30;;;;;;7712617;23;20023;-64
2021/03/30 07:47:25;;;;;;;4.72;2.40;;;20.20;46.50;;;;;;7711399;23;20375;-64
2021/03/30 07:51:02;;;;;;;3.47;2.08;;;20.20;46.50;;;;;;7711693;23;20001;-63
2021/03/30 07:54:12;;;;;;;2.95;1.98;;;20.20;46.90;;;;;;7711763;23;20056;-63
2021/03/30 07:57:13;;;;;;;3.65;2.00;;;20.30;46.40;;;;;;7712394;23;20054;-64
2021/03/30 08:00:33;;;;;;;5.78;2.40;;;20.30;46.20;;;;;;7712496;23;20008;-64
2021/03/30 08:03:35;;;;;;;3.67;1.98;;;20.30;46.40;;;;;;7711973;23;20392;-64
2021/03/30 08:06:49;;;;;;;4.60;2.25;;;20.40;46.30;;;;;;7710893;23;20024;-64
2021/03/30 08:10:19;;;;;;;2.25;1.50;;;20.40;46.30;;;;;;7712159;23;20079;-64
2021/03/30 08:13:33;;;;;;;2.70;1.60;;;20.30;46.50;;;;;;7712073;23;20004;-64
2021/03/30 08:16:41;;;;;;;4.03;1.83;;;20.30;46.50;;;;;;7711509;23;20015;-64
2021/03/30 08:19:56;;;;;;;3.75;1.67;;;20.30;46.40;;;;;;7711784;23;20081;-64
2021/03/30 08:23:10;;;;;;;4.97;2.13;;;20.30;46.40;;;;;;7712338;23;20079;-64
2021/03/30 08:26:29;;;;;;;2.55;1.63;;;20.40;46.50;;;;;;7711999;23;20009;-63
2021/03/30 08:29:39;;;;;;;4.30;2.08;;;20.30;46.50;;;;;;7712541;23;20004;-64
2021/03/30 08:32:45;;;;;;;7.68;2.00;;;20.30;46.50;;;;;;7712173;23;20376;-64
2021/03/30 08:35:46;;;;;;;3.58;1.83;;;20.40;46.60;;;;;;7711073;23;20023;-64
2021/03/30 08:38:48;;;;;;;2.40;1.50;;;20.40;46.50;;;;;;7711765;23;20012;-65
2021/03/30 08:41:54;;;;;;;4.03;1.75;;;20.40;46.50;;;;;;7711777;23;20005;-66
2021/03/30 08:45:02;;;;;;;3.63;1.80;;;20.40;46.50;;;;;;7711733;23;20043;-65
2021/03/30 08:48:12;;;;;;;3.15;1.63;;;20.40;46.60;;;;;;7709532;23;20317;-65
2021/03/30 08:51:15;;;;;;;3.90;1.88;;;20.40;46.60;;;;;;7711800;23;20128;-65
2021/03/30 08:54:16;;;;;;;2.75;1.35;;;20.40;46.70;;;;;;7710463;23;20009;-64
2021/03/30 08:57:38;;;;;;;3.45;1.70;;;20.40;46.70;;;;;;7710927;23;20028;-64
2021/03/30 09:00:39;;;;;;;3.95;1.85;;;20.40;46.80;;;;;;7712415;23;20005;-64
2021/03/30 09:03:41;;;;;;;1.77;1.30;;;20.40;46.80;;;;;;7711716;23;20059;-65
2021/03/30 09:06:53;;;;;;;6.78;1.60;;;20.40;46.80;;;;;;7710212;23;20066;-65
2021/03/30 09:10:06;;;;;;;2.95;1.50;;;20.40;46.80;;;;;;7711427;23;20015;-65
2021/03/30 09:13:12;;;;;;;8.52;3.08;;;20.40;46.80;;;;;;7711363;23;20035;-65
2021/03/30 09:16:13;;;;;;;6.53;1.55;;;20.40;46.90;;;;;;7711546;23;19997;-64
2021/03/30 09:19:17;;;;;;;2.58;1.67;;;20.40;47.00;;;;;;7711900;23;20004;-64
2021/03/30 09:22:23;;;;;;;3.45;1.70;;;20.40;46.90;;;;;;7712507;23;20008;-64
2021/03/30 09:25:42;;;;;;;6.30;1.52;;;20.40;47.00;;;;;;7710353;23;20072;-65
2021/03/30 09:28:43;;;;;;;3.15;1.58;;;20.50;47.00;;;;;;7711558;23;20008;-65
2021/03/30 09:31:46;;;;;;;3.25;1.50;;;20.40;46.90;;;;;;7711104;23;20452;-65
2021/03/30 09:34:46;;;;;;;2.85;1.63;;;20.40;47.00;;;;;;7710728;23;20278;-65
2021/03/30 09:37:56;;;;;;;4.07;1.35;;;20.40;47.00;;;;;;7710849;23;20032;-64
2021/03/30 09:40:57;;;;;;;3.83;1.35;;;20.40;47.00;;;;;;7711093;23;20267;-65
2021/03/30 09:43:59;;;;;;;4.57;2.22;;;20.40;47.00;;;;;;7709999;23;20042;-65
2021/03/30 09:47:00;;;;;;;2.53;1.27;;;20.40;47.00;;;;;;7711112;23;20419;-65
2021/03/30 09:50:02;;;;;;;3.15;1.58;;;20.40;47.00;;;;;;7710545;23;20032;-65
2021/03/30 09:53:07;;;;;;;2.42;1.40;;;20.40;47.00;;;;;;7710402;23;20424;-65
2021/03/30 09:56:21;;;;;;;3.17;1.27;;;20.40;47.00;;;;;;7710681;23;20004;-64
2021/03/30 09:59:21;;;;;;;4.45;1.63;;;20.40;47.10;;;;;;7710964;23;20328;-65
2021/03/30 10:02:25;;;;;;;3.85;1.40;;;20.40;47.10;;;;;;7709247;23;20019;-65
2021/03/30 10:05:35;;;;;;;5.13;1.50;;;20.40;47.10;;;;;;7709473;23;20138;-64
2021/03/30 10:08:35;;;;;;;2.88;1.42;;;20.50;47.10;;;;;;7711080;23;20043;-64
2021/03/30 10:11:36;;;;;;;3.03;1.17;;;20.40;47.80;;;;;;7710890;23;20072;-64
2021/03/30 10:14:45;;;;;;;3.45;1.48;;;20.40;47.10;;;;;;7710949;23;20005;-65
2021/03/30 10:17:46;;;;;;;2.97;1.30;;;20.40;47.10;;;;;;7710859;23;20336;-65
2021/03/30 10:20:49;;;;;;;2.38;1.30;;;20.40;47.20;;;;;;7711238;23;20004;-65
2021/03/30 10:23:52;;;;;;;2.35;1.15;;;20.50;47.20;;;;;;7710110;23;20444;-65
2021/03/30 10:27:06;;;;;;;2.80;1.20;;;20.50;47.20;;;;;;7710931;23;20015;-65
2021/03/30 10:30:07;;;;;;;3.45;1.27;;;20.40;47.20;;;;;;7710992;23;20012;-66
2021/03/30 10:33:12;;;;;;;2.80;1.20;;;20.40;47.20;;;;;;7711189;23;20012;-66
2021/03/30 10:36:14;;;;;;;18.23;2.30;;;20.50;47.30;;;;;;7710514;23;19997;-65
2021/03/30 10:39:15;;;;;;;5.88;1.30;;;20.50;47.50;;;;;;7711150;23;20017;-66
2021/03/30 10:42:17;;;;;;;2.13;1.23;;;20.50;47.20;;;;;;7710315;23;20016;-63
2021/03/30 10:45:28;;;;;;;11.38;1.80;;;20.60;47.20;;;;;;7711124;23;20020;-64
2021/03/30 10:48:29;;;;;;;5.55;1.10;;;20.60;47.20;;;;;;7708434;23;20020;-64
2021/03/30 10:51:32;;;;;;;4.60;1.60;;;20.60;47.20;;;;;;7710087;23;20059;-64
2021/03/30 10:54:32;;;;;;;3.85;1.17;;;20.60;47.30;;;;;;7709130;23;20491;-64
2021/03/30 10:57:35;;;;;;;2.63;1.20;;;20.60;47.30;;;;;;7709374;23;20004;-65
2021/03/30 11:00:36;;;;;;;4.35;1.35;;;20.60;47.60;;;;;;7710829;23;20436;-64
2021/03/30 11:03:36;;;;;;;2.83;1.45;;;20.60;47.70;;;;;;7709917;23;20012;-64
2021/03/30 11:06:37;;;;;;;2.50;1.27;;;20.60;47.50;;;;;;7708056;23;20012;-64
2021/03/30 11:09:38;;;;;;;2.80;1.10;;;20.60;47.40;;;;;;7709703;23;20062;-65
2021/03/30 11:12:40;;;;;;;3.50;1.00;;;20.50;47.30;;;;;;7709906;23;20016;-65
2021/03/30 11:15:40;;;;;;;2.17;1.08;;;20.50;47.30;;;;;;7709762;23;20025;-65
2021/03/30 11:18:41;;;;;;;3.72;1.48;;;20.50;48.00;;;;;;7708621;23;20489;-65
2021/03/30 11:21:42;;;;;;;2.88;1.40;;;20.50;47.40;;;;;;7710259;23;20012;-64
2021/03/30 11:24:43;;;;;;;3.55;1.27;;;20.50;48.10;;;;;;7711574;23;20023;-64
2021/03/30 11:27:48;;;;;;;3.17;1.10;;;20.50;47.40;;;;;;7708809;23;20470;-64
2021/03/30 11:30:54;;;;;;;2.60;1.50;;;20.50;47.30;;;;;;7712591;23;20016;-64
2021/03/30 11:34:03;;;;;;;2.88;1.20;;;20.60;47.40;;;;;;7710516;23;20028;-64
2021/03/30 11:37:32;;;;;;;2.40;1.13;;;20.50;47.30;;;;;;7711741;23;20225;-64
2021/03/30 11:40:32;;;;;;;1.95;1.20;;;20.50;47.30;;;;;;7712031;23;20056;-64
2021/03/30 11:43:33;;;;;;;6.18;1.33;;;20.50;47.40;;;;;;7711357;23;20001;-64
2021/03/30 11:46:34;;;;;;;2.00;1.17;;;20.50;47.40;;;;;;7712049;23;20008;-65
2021/03/30 11:49:35;;;;;;;3.05;0.93;;;20.50;47.40;;;;;;7711165;23;20719;-65
2021/03/30 11:52:36;;;;;;;7.63;1.20;;;20.50;48.10;;;;;;7711888;23;20000;-64
2021/03/30 11:55:37;;;;;;;1.52;0.90;;;20.50;47.40;;;;;;7710968;23;20005;-64
2021/03/30 11:58:37;;;;;;;1.95;1.05;;;20.50;47.50;;;;;;7710152;23;20001;-65
2021/03/30 12:01:38;;;;;;;2.78;1.20;;;20.50;47.50;;;;;;7712357;23;20004;-65
2021/03/30 12:04:39;;;;;;;2.47;1.13;;;20.50;47.50;;;;;;7711847;23;20009;-64
2021/03/30 12:07:39;;;;;;;1.60;0.80;;;20.50;47.50;;;;;;7711341;23;20005;-65
2021/03/30 12:10:40;;;;;;;2.28;1.10;;;20.50;47.50;;;;;;7710799;23;20024;-65
2021/03/30 12:13:40;;;;;;;2.70;0.70;;;20.50;47.60;;;;;;7712042;23;20377;-65
2021/03/30 12:16:43;;;;;;;1.40;0.73;;;20.50;47.60;;;;;;7709850;23;20008;-64
2021/03/30 12:19:44;;;;;;;1.35;0.73;;;20.50;47.60;;;;;;7712007;23;20008;-65
2021/03/30 12:22:45;;;;;;;2.00;1.00;;;20.50;47.60;;;;;;7711137;23;20688;-65
2021/03/30 12:25:45;;;;;;;1.85;1.00;;;20.50;47.70;;;;;;7710863;23;20463;-65
2021/03/30 12:28:46;;;;;;;3.42;0.88;;;20.50;47.60;;;;;;7711557;23;20001;-65
2021/03/30 12:31:46;;;;;;;1.00;0.80;;;20.50;47.70;;;;;;7711750;23;20012;-65
2021/03/30 12:34:47;;;;;;;4.35;0.98;;;20.50;47.70;;;;;;7710338;23;20005;-64
2021/03/30 12:37:48;;;;;;;2.67;1.02;;;20.50;47.70;;;;;;7711058;23;20032;-65
2021/03/30 12:40:49;;;;;;;2.95;1.20;;;20.50;47.70;;;;;;7711367;23;20019;-65
2021/03/30 12:43:50;;;;;;;6.78;0.85;;;20.50;47.80;;;;;;7711358;23;20013;-65
2021/03/30 12:46:50;;;;;;;2.38;1.00;;;20.50;47.90;;;;;;7709878;23;20013;-64
2021/03/30 12:49:51;;;;;;;1.70;1.00;;;20.40;47.80;;;;;;7710875;23;20027;-65
2021/03/30 12:52:51;;;;;;;2.25;0.90;;;20.50;47.80;;;;;;7712105;23;20031;-64
2021/03/30 12:55:52;;;;;;;3.30;1.20;;;20.50;47.90;;;;;;7711331;23;20090;-64
2021/03/30 12:58:52;;;;;;;2.80;1.05;;;20.50;47.90;;;;;;7709941;23;20007;-64
2021/03/30 13:01:53;;;;;;;1.70;0.90;;;20.50;48.00;;;;;;7709639;23;20096;-64
2021/03/30 13:04:54;;;;;;;1.10;0.93;;;20.40;47.80;;;;;;7711716;23;20099;-64
2021/03/30 13:07:54;;;;;;;1.75;0.93;;;20.50;48.00;;;;;;7710622;23;20062;-64
2021/03/30 13:10:55;;;;;;;1.55;0.95;;;20.50;47.90;;;;;;7710578;23;20000;-65
2021/03/30 13:13:55;;;;;;;2.05;0.80;;;20.50;47.90;;;;;;7711504;23;20063;-65
2021/03/30 13:16:56;;;;;;;1.95;0.90;;;20.50;47.90;;;;;;7710488;23;20012;-64
2021/03/30 13:19:57;;;;;;;2.85;1.10;;;20.50;47.80;;;;;;7711352;23;20008;-65
2021/03/30 13:22:58;;;;;;;1.52;0.90;;;20.50;47.90;;;;;;7709107;23;20040;-64
2021/03/30 13:25:58;;;;;;;1.73;0.80;;;20.50;48.00;;;;;;7710347;23;20039;-65
2021/03/30 13:28:59;;;;;;;1.30;0.73;;;20.50;48.00;;;;;;7710643;23;20005;-65
2021/03/30 13:31:59;;;;;;;1.48;1.02;;;20.40;48.10;;;;;;7710999;23;20083;-64
2021/03/30 13:35:00;;;;;;;1.75;1.00;;;20.50;48.10;;;;;;7710174;23;20407;-65
2021/03/30 13:38:00;;;;;;;1.30;0.90;;;20.50;48.10;;;;;;7706908;23;20004;-65
2021/03/30 13:41:02;;;;;;;3.20;1.00;;;20.50;48.80;;;;;;7711351;23;20364;-65
2021/03/30 13:44:03;;;;;;;2.15;0.80;;;20.40;48.10;;;;;;7710488;23;20032;-65
2021/03/30 13:47:05;;;;;;;4.30;1.05;;;20.40;48.20;;;;;;7709787;23;20076;-65
2021/03/30 13:50:08;;;;;;;2.15;1.15;;;20.50;48.10;;;;;;7710680;23;20128;-64
2021/03/30 13:53:08;;;;;;;2.33;0.95;;;20.50;48.20;;;;;;7710973;23;20008;-64
2021/03/30 13:56:09;;;;;;;2.13;0.88;;;20.50;48.20;;;;;;7710484;23;20016;-65
2021/03/30 13:59:10;;;;;;;1.10;0.70;;;20.50;48.20;;;;;;7709604;23;20381;-65
2021/03/30 14:02:11;;;;;;;1.73;1.00;;;20.40;48.20;;;;;;7710689;23;20332;-64
2021/03/30 14:05:12;;;;;;;1.55;0.88;;;20.50;48.20;;;;;;7710459;23;20009;-64
2021/03/30 14:08:12;;;;;;;1.38;0.90;;;20.50;48.20;;;;;;7710000;23;20078;-64
2021/03/30 14:11:13;;;;;;;2.72;0.75;;;20.40;48.20;;;;;;7710123;23;20079;-65
2021/03/30 14:20:49;;;;;;;1.15;0.63;;;20.50;48.30;;;;;;7691876;23;20034;-65
2021/03/30 14:24:01;;;;;;;4.07;0.95;;;20.50;48.90;;;;;;7709156;23;20008;-64
2021/03/30 14:27:01;;;;;;;2.13;1.00;;;20.50;48.30;;;;;;7709684;23;20000;-64
2021/03/30 14:30:04;;;;;;;1.55;0.88;;;20.40;48.00;;;;;;7710392;23;20451;-64
2021/03/30 14:33:04;;;;;;;5.80;1.10;;;20.50;48.10;;;;;;7710591;23;20080;-65
2021/03/30 14:36:05;;;;;;;2.95;1.15;;;20.50;48.10;;;;;;7710334;23;20001;-65
2021/03/30 14:39:07;;;;;;;1.27;0.73;;;20.50;48.10;;;;;;7708499;23;20095;-65
2021/03/30 14:42:11;;;;;;;3.85;1.05;;;20.50;48.10;;;;;;7710720;23;20008;-65
2021/03/30 14:52:02;;;;;;;3.42;1.20;;;20.40;48.10;;;;;;7710588;23;20008;-64
2021/03/30 15:04:37;;;;;;;4.93;1.00;;;20.50;48.20;;;;;;7715416;23;20023;-65
2021/03/30 15:07:37;;;;;;;1.40;0.98;;;20.50;48.30;;;;;;7712358;23;20444;-64
2021/03/30 15:10:38;;;;;;;1.92;1.00;;;20.50;48.10;;;;;;7712842;23;20001;-64
2021/03/30 15:13:38;;;;;;;1.05;0.80;;;20.50;48.30;;;;;;7711814;23;20004;-64
2021/03/30 15:16:39;;;;;;;1.77;0.77;;;20.50;48.30;;;;;;7712514;23;20328;-65
2021/03/30 15:19:40;;;;;;;2.15;1.02;;;20.50;48.30;;;;;;7712501;23;20009;-65
2021/03/30 15:22:40;;;;;;;2.75;0.82;;;20.50;48.30;;;;;;7712457;23;20031;-64
2021/03/30 15:25:41;;;;;;;5.10;1.05;;;20.50;48.30;;;;;;7711515;23;20020;-65
2021/03/30 15:28:41;;;;;;;3.80;0.80;;;20.50;48.30;;;;;;7711950;23;20340;-64
2021/03/30 15:31:42;;;;;;;0.93;0.70;;;20.50;48.30;;;;;;7712612;23;20329;-65
2021/03/30 15:34:43;;;;;;;1.65;0.70;;;20.40;48.20;;;;;;7712372;23;20036;-65
2021/03/30 15:37:44;;;;;;;1.52;0.85;;;20.50;48.30;;;;;;7711686;23;20015;-65
2021/03/30 15:40:45;;;;;;;1.52;0.70;;;20.50;48.30;;;;;;7712382;23;20008;-65
2021/03/30 15:43:46;;;;;;;1.20;0.80;;;20.50;48.40;;;;;;7712504;23;20367;-65
2021/03/30 15:50:11;;;;;;;2.20;1.05;;;20.50;48.20;;;;;;7712191;23;20020;-65
2021/03/30 15:53:14;;;;;;;4.20;1.08;;;20.50;48.30;;;;;;7711862;23;20001;-64
2021/03/30 15:56:15;;;;;;;2.63;1.00;;;20.50;48.20;;;;;;7712067;23;20376;-64
2021/03/30 15:59:16;;;;;;;1.90;1.10;;;20.50;48.30;;;;;;7711358;23;20701;-64
2021/03/30 16:02:17;;;;;;;3.35;0.98;;;20.50;48.20;;;;;;7712734;23;20312;-64
2021/03/30 16:05:22;;;;;;;5.68;1.20;;;20.50;48.20;;;;;;7711069;23;20062;-64
2021/03/30 16:08:22;;;;;;;4.13;1.20;;;20.50;48.20;;;;;;7710943;23;20008;-65
2021/03/30 16:11:23;;;;;;;3.30;0.90;;;20.50;48.20;;;;;;7711901;23;20008;-65
2021/03/30 16:14:23;;;;;;;3.75;1.23;;;20.50;48.10;;;;;;7710896;23;20008;-65
2021/03/30 16:17:24;;;;;;;6.00;1.10;;;20.50;48.30;;;;;;7708565;23;20008;-65
2021/03/30 16:20:25;;;;;;;9.30;1.10;;;20.50;48.20;;;;;;7710211;23;20004;-65